sensor_id;sensor_type;location;lat;lon;timestamp;P1;durP1;ratioP1;P2;durP2;ratioP2
9248;SDS011;4660;41.768;26.198;2022-10-17T00:00:48;6.03;;;3.50;;
9248;SDS011;4660;41.768;26.198;2022-10-17T00:03:14;6.63;;;3.37;;
9248;SDS011;4660;41.768;26.198;2022-10-17T00:05:40;13.87;;;3.70;;
9248;SDS011;4660;41.768;26.198;2022-10-17T00:08:08;5.37;;;3.23;;
9248;SDS011;4660;41.768;26.198;2022-10-17T00:10:34;6.70;;;3.27;;
9248;SDS011;4660;41.768;26.198;2022-10-17T00:13:00;7.47;;;3.60;;
9248;SDS011;4660;41.768;26.198;2022-10-17T00:15:26;10.73;;;3.93;;
9248;SDS011;4660;41.768;26.198;2022-10-17T00:17:51;5.20;;;3.67;;
9248;SDS011;4660;41.768;26.198;2022-10-17T00:20:17;5.77;;;3.70;;
9248;SDS011;4660;41.768;26.198;2022-10-17T00:22:43;4.53;;;3.63;;
9248;SDS011;4660;41.768;26.198;2022-10-17T00:25:09;4.47;;;3.47;;
9248;SDS011;4660;41.768;26.198;2022-10-17T00:27:38;7.37;;;3.73;;
9248;SDS011;4660;41.768;26.198;2022-10-17T00:30:05;8.80;;;4.70;;
9248;SDS011;4660;41.768;26.198;2022-10-17T00:32:34;5.57;;;4.13;;
9248;SDS011;4660;41.768;26.198;2022-10-17T00:34:59;4.60;;;4.10;;
9248;SDS011;4660;41.768;26.198;2022-10-17T00:37:25;7.53;;;4.30;;
9248;SDS011;4660;41.768;26.198;2022-10-17T00:39:51;6.60;;;4.30;;
9248;SDS011;4660;41.768;26.198;2022-10-17T00:42:18;6.03;;;4.60;;
9248;SDS011;4660;41.768;26.198;2022-10-17T00:47:12;5.57;;;4.60;;
9248;SDS011;4660;41.768;26.198;2022-10-17T00:49:43;5.43;;;4.00;;
9248;SDS011;4660;41.768;26.198;2022-10-17T00:52:10;5.00;;;3.73;;
9248;SDS011;4660;41.768;26.198;2022-10-17T00:54:42;10.07;;;4.70;;
9248;SDS011;4660;41.768;26.198;2022-10-17T00:57:13;6.93;;;4.27;;
9248;SDS011;4660;41.768;26.198;2022-10-17T00:59:41;4.77;;;4.20;;
9248;SDS011;4660;41.768;26.198;2022-10-17T01:02:12;5.10;;;4.07;;
9248;SDS011;4660;41.768;26.198;2022-10-17T01:04:41;11.00;;;4.53;;
9248;SDS011;4660;41.768;26.198;2022-10-17T01:07:08;8.00;;;4.10;;
9248;SDS011;4660;41.768;26.198;2022-10-17T01:09:34;8.10;;;4.20;;
9248;SDS011;4660;41.768;26.198;2022-10-17T01:18:02;5.03;;;4.17;;
9248;SDS011;4660;41.768;26.198;2022-10-17T01:21:09;5.70;;;4.40;;
9248;SDS011;4660;41.768;26.198;2022-10-17T01:32:12;5.43;;;4.67;;
9248;SDS011;4660;41.768;26.198;2022-10-17T01:39:53;11.70;;;5.00;;
9248;SDS011;4660;41.768;26.198;2022-10-17T01:45:11;6.77;;;4.47;;
9248;SDS011;4660;41.768;26.198;2022-10-17T01:47:38;9.27;;;5.00;;
9248;SDS011;4660;41.768;26.198;2022-10-17T01:50:40;6.07;;;4.70;;
9248;SDS011;4660;41.768;26.198;2022-10-17T01:53:06;5.83;;;5.03;;
9248;SDS011;4660;41.768;26.198;2022-10-17T01:55:38;6.03;;;5.00;;
9248;SDS011;4660;41.768;26.198;2022-10-17T01:58:09;5.87;;;4.73;;
9248;SDS011;4660;41.768;26.198;2022-10-17T02:00:39;10.27;;;5.20;;
9248;SDS011;4660;41.768;26.198;2022-10-17T02:03:11;11.73;;;5.87;;
9248;SDS011;4660;41.768;26.198;2022-10-17T02:05:40;6.33;;;5.73;;
9248;SDS011;4660;41.768;26.198;2022-10-17T02:08:07;7.77;;;5.40;;
9248;SDS011;4660;41.768;26.198;2022-10-17T02:30:18;8.13;;;6.37;;
9248;SDS011;4660;41.768;26.198;2022-10-17T02:32:54;9.67;;;5.70;;
9248;SDS011;4660;41.768;26.198;2022-10-17T02:35:26;9.27;;;6.80;;
9248;SDS011;4660;41.768;26.198;2022-10-17T02:37:55;13.13;;;7.23;;
9248;SDS011;4660;41.768;26.198;2022-10-17T02:40:22;12.70;;;6.00;;
9248;SDS011;4660;41.768;26.198;2022-10-17T02:42:50;10.73;;;5.80;;
9248;SDS011;4660;41.768;26.198;2022-10-17T02:45:18;7.37;;;5.47;;
9248;SDS011;4660;41.768;26.198;2022-10-17T02:47:48;7.87;;;5.87;;
9248;SDS011;4660;41.768;26.198;2022-10-17T02:50:20;23.43;;;14.30;;
9248;SDS011;4660;41.768;26.198;2022-10-17T02:52:51;11.23;;;7.77;;
9248;SDS011;4660;41.768;26.198;2022-10-17T02:55:32;8.53;;;5.57;;
9248;SDS011;4660;41.768;26.198;2022-10-17T02:58:04;7.13;;;5.90;;
9248;SDS011;4660;41.768;26.198;2022-10-17T03:00:33;5.67;;;5.07;;
9248;SDS011;4660;41.768;26.198;2022-10-17T03:02:59;7.80;;;6.17;;
9248;SDS011;4660;41.768;26.198;2022-10-17T03:05:26;10.33;;;6.30;;
9248;SDS011;4660;41.768;26.198;2022-10-17T03:07:53;9.27;;;6.20;;
9248;SDS011;4660;41.768;26.198;2022-10-17T03:10:19;12.00;;;6.53;;
9248;SDS011;4660;41.768;26.198;2022-10-17T03:12:45;11.63;;;6.83;;
9248;SDS011;4660;41.768;26.198;2022-10-17T03:15:11;11.00;;;7.20;;
9248;SDS011;4660;41.768;26.198;2022-10-17T03:17:37;9.50;;;7.60;;
9248;SDS011;4660;41.768;26.198;2022-10-17T03:20:03;11.47;;;8.47;;
9248;SDS011;4660;41.768;26.198;2022-10-17T03:22:30;10.63;;;8.67;;
9248;SDS011;4660;41.768;26.198;2022-10-17T03:24:56;12.20;;;8.03;;
9248;SDS011;4660;41.768;26.198;2022-10-17T03:27:22;11.17;;;8.07;;
9248;SDS011;4660;41.768;26.198;2022-10-17T03:29:48;9.97;;;8.27;;
9248;SDS011;4660;41.768;26.198;2022-10-17T03:32:13;10.07;;;7.97;;
9248;SDS011;4660;41.768;26.198;2022-10-17T03:34:39;9.60;;;8.43;;
9248;SDS011;4660;41.768;26.198;2022-10-17T03:37:04;9.63;;;8.57;;
9248;SDS011;4660;41.768;26.198;2022-10-17T03:39:30;10.30;;;8.53;;
9248;SDS011;4660;41.768;26.198;2022-10-17T03:41:56;14.07;;;8.37;;
9248;SDS011;4660;41.768;26.198;2022-10-17T03:44:22;14.67;;;9.33;;
9248;SDS011;4660;41.768;26.198;2022-10-17T03:46:47;10.80;;;8.40;;
9248;SDS011;4660;41.768;26.198;2022-10-17T03:49:13;15.00;;;7.90;;
9248;SDS011;4660;41.768;26.198;2022-10-17T03:51:38;11.30;;;8.97;;
9248;SDS011;4660;41.768;26.198;2022-10-17T03:54:04;17.23;;;9.60;;
9248;SDS011;4660;41.768;26.198;2022-10-17T03:56:30;10.07;;;8.13;;
9248;SDS011;4660;41.768;26.198;2022-10-17T03:58:55;8.87;;;7.93;;
9248;SDS011;4660;41.768;26.198;2022-10-17T04:01:21;14.30;;;7.60;;
9248;SDS011;4660;41.768;26.198;2022-10-17T04:03:47;12.77;;;8.77;;
9248;SDS011;4660;41.768;26.198;2022-10-17T04:06:17;11.90;;;8.90;;
9248;SDS011;4660;41.768;26.198;2022-10-17T04:08:44;11.00;;;9.20;;
9248;SDS011;4660;41.768;26.198;2022-10-17T04:11:10;10.33;;;8.67;;
9248;SDS011;4660;41.768;26.198;2022-10-17T04:13:39;15.73;;;9.83;;
9248;SDS011;4660;41.768;26.198;2022-10-17T04:16:06;12.23;;;9.90;;
9248;SDS011;4660;41.768;26.198;2022-10-17T04:18:34;13.77;;;9.63;;
9248;SDS011;4660;41.768;26.198;2022-10-17T04:21:00;13.67;;;9.40;;
9248;SDS011;4660;41.768;26.198;2022-10-17T04:23:27;15.90;;;10.00;;
9248;SDS011;4660;41.768;26.198;2022-10-17T04:25:56;15.57;;;9.87;;
9248;SDS011;4660;41.768;26.198;2022-10-17T04:28:26;16.57;;;9.63;;
9248;SDS011;4660;41.768;26.198;2022-10-17T04:31:02;10.33;;;8.60;;
9248;SDS011;4660;41.768;26.198;2022-10-17T04:33:33;15.87;;;10.00;;
9248;SDS011;4660;41.768;26.198;2022-10-17T04:36:00;12.33;;;8.97;;
9248;SDS011;4660;41.768;26.198;2022-10-17T04:38:28;12.80;;;8.57;;
9248;SDS011;4660;41.768;26.198;2022-10-17T04:40:55;10.80;;;8.77;;
9248;SDS011;4660;41.768;26.198;2022-10-17T04:43:21;10.73;;;8.37;;
9248;SDS011;4660;41.768;26.198;2022-10-17T04:45:47;15.67;;;8.63;;
9248;SDS011;4660;41.768;26.198;2022-10-17T04:48:12;12.47;;;9.00;;
9248;SDS011;4660;41.768;26.198;2022-10-17T04:50:38;11.27;;;8.30;;
9248;SDS011;4660;41.768;26.198;2022-10-17T04:53:03;12.60;;;8.67;;
9248;SDS011;4660;41.768;26.198;2022-10-17T04:55:29;17.13;;;9.07;;
9248;SDS011;4660;41.768;26.198;2022-10-17T04:57:54;16.70;;;9.00;;
9248;SDS011;4660;41.768;26.198;2022-10-17T05:00:20;11.97;;;7.93;;
9248;SDS011;4660;41.768;26.198;2022-10-17T05:02:45;14.27;;;8.80;;
9248;SDS011;4660;41.768;26.198;2022-10-17T05:05:11;12.17;;;7.70;;
9248;SDS011;4660;41.768;26.198;2022-10-17T05:07:40;14.27;;;8.77;;
9248;SDS011;4660;41.768;26.198;2022-10-17T05:10:06;15.27;;;9.47;;
9248;SDS011;4660;41.768;26.198;2022-10-17T05:12:32;14.57;;;9.33;;
9248;SDS011;4660;41.768;26.198;2022-10-17T05:14:57;16.47;;;10.03;;
9248;SDS011;4660;41.768;26.198;2022-10-17T05:17:23;12.97;;;9.20;;
9248;SDS011;4660;41.768;26.198;2022-10-17T05:19:48;14.67;;;9.90;;
9248;SDS011;4660;41.768;26.198;2022-10-17T05:22:15;17.73;;;8.50;;
9248;SDS011;4660;41.768;26.198;2022-10-17T05:24:40;12.13;;;8.93;;
9248;SDS011;4660;41.768;26.198;2022-10-17T05:27:06;12.07;;;9.40;;
9248;SDS011;4660;41.768;26.198;2022-10-17T05:29:31;14.10;;;8.90;;
9248;SDS011;4660;41.768;26.198;2022-10-17T05:31:58;14.47;;;9.13;;
9248;SDS011;4660;41.768;26.198;2022-10-17T05:34:24;11.63;;;6.53;;
9248;SDS011;4660;41.768;26.198;2022-10-17T05:36:51;11.10;;;7.30;;
9248;SDS011;4660;41.768;26.198;2022-10-17T05:39:16;9.93;;;6.90;;
9248;SDS011;4660;41.768;26.198;2022-10-17T05:41:44;14.00;;;7.53;;
9248;SDS011;4660;41.768;26.198;2022-10-17T05:44:11;12.70;;;7.93;;
9248;SDS011;4660;41.768;26.198;2022-10-17T05:46:37;11.87;;;8.97;;
9248;SDS011;4660;41.768;26.198;2022-10-17T05:49:03;12.33;;;9.17;;
9248;SDS011;4660;41.768;26.198;2022-10-17T05:51:29;14.00;;;8.70;;
9248;SDS011;4660;41.768;26.198;2022-10-17T05:53:54;12.40;;;7.77;;
9248;SDS011;4660;41.768;26.198;2022-10-17T05:56:20;9.87;;;7.67;;
9248;SDS011;4660;41.768;26.198;2022-10-17T05:58:46;11.43;;;7.67;;
9248;SDS011;4660;41.768;26.198;2022-10-17T06:01:13;15.27;;;8.27;;
9248;SDS011;4660;41.768;26.198;2022-10-17T06:03:39;16.87;;;8.00;;
9248;SDS011;4660;41.768;26.198;2022-10-17T06:06:05;12.37;;;8.60;;
9248;SDS011;4660;41.768;26.198;2022-10-17T06:08:32;10.70;;;8.57;;
9248;SDS011;4660;41.768;26.198;2022-10-17T06:10:59;11.23;;;7.17;;
9248;SDS011;4660;41.768;26.198;2022-10-17T06:13:25;10.20;;;7.87;;
9248;SDS011;4660;41.768;26.198;2022-10-17T06:15:51;10.10;;;6.83;;
9248;SDS011;4660;41.768;26.198;2022-10-17T06:18:17;10.63;;;6.20;;
9248;SDS011;4660;41.768;26.198;2022-10-17T06:20:43;9.90;;;6.77;;
9248;SDS011;4660;41.768;26.198;2022-10-17T06:23:09;13.13;;;7.17;;
9248;SDS011;4660;41.768;26.198;2022-10-17T06:25:35;10.37;;;5.97;;
9248;SDS011;4660;41.768;26.198;2022-10-17T06:28:01;10.43;;;6.77;;
9248;SDS011;4660;41.768;26.198;2022-10-17T06:30:27;10.47;;;6.60;;
9248;SDS011;4660;41.768;26.198;2022-10-17T06:32:53;13.73;;;7.67;;
9248;SDS011;4660;41.768;26.198;2022-10-17T06:35:18;14.33;;;7.10;;
9248;SDS011;4660;41.768;26.198;2022-10-17T06:37:48;11.33;;;7.17;;
9248;SDS011;4660;41.768;26.198;2022-10-17T06:40:14;7.90;;;6.60;;
9248;SDS011;4660;41.768;26.198;2022-10-17T06:42:41;9.70;;;7.17;;
9248;SDS011;4660;41.768;26.198;2022-10-17T06:45:07;10.87;;;6.73;;
9248;SDS011;4660;41.768;26.198;2022-10-17T06:47:33;10.40;;;7.47;;
9248;SDS011;4660;41.768;26.198;2022-10-17T06:50:17;8.00;;;6.73;;
9248;SDS011;4660;41.768;26.198;2022-10-17T06:52:45;10.53;;;7.63;;
9248;SDS011;4660;41.768;26.198;2022-10-17T06:55:17;12.10;;;7.03;;
9248;SDS011;4660;41.768;26.198;2022-10-17T06:57:43;8.33;;;5.73;;
9248;SDS011;4660;41.768;26.198;2022-10-17T07:00:09;11.57;;;7.60;;
9248;SDS011;4660;41.768;26.198;2022-10-17T07:02:38;9.73;;;6.83;;
9248;SDS011;4660;41.768;26.198;2022-10-17T07:05:04;9.30;;;6.60;;
9248;SDS011;4660;41.768;26.198;2022-10-17T07:07:31;11.80;;;7.27;;
9248;SDS011;4660;41.768;26.198;2022-10-17T07:09:57;9.93;;;5.57;;
9248;SDS011;4660;41.768;26.198;2022-10-17T07:12:24;10.77;;;6.50;;
9248;SDS011;4660;41.768;26.198;2022-10-17T07:14:50;10.27;;;6.47;;
9248;SDS011;4660;41.768;26.198;2022-10-17T07:17:16;10.47;;;6.80;;
9248;SDS011;4660;41.768;26.198;2022-10-17T07:19:42;9.90;;;6.17;;
9248;SDS011;4660;41.768;26.198;2022-10-17T07:22:09;7.87;;;6.50;;
9248;SDS011;4660;41.768;26.198;2022-10-17T07:24:35;8.63;;;6.47;;
9248;SDS011;4660;41.768;26.198;2022-10-17T07:27:01;10.17;;;5.50;;
9248;SDS011;4660;41.768;26.198;2022-10-17T07:29:26;8.67;;;6.27;;
9248;SDS011;4660;41.768;26.198;2022-10-17T07:31:53;9.60;;;5.90;;
9248;SDS011;4660;41.768;26.198;2022-10-17T07:34:19;9.83;;;5.97;;
9248;SDS011;4660;41.768;26.198;2022-10-17T07:36:45;9.83;;;6.30;;
9248;SDS011;4660;41.768;26.198;2022-10-17T07:39:12;8.63;;;6.17;;
9248;SDS011;4660;41.768;26.198;2022-10-17T07:41:39;11.63;;;7.00;;
9248;SDS011;4660;41.768;26.198;2022-10-17T07:44:04;11.63;;;6.60;;
9248;SDS011;4660;41.768;26.198;2022-10-17T07:46:30;9.47;;;6.50;;
9248;SDS011;4660;41.768;26.198;2022-10-17T07:48:55;13.00;;;6.90;;
9248;SDS011;4660;41.768;26.198;2022-10-17T07:51:21;10.83;;;7.03;;
9248;SDS011;4660;41.768;26.198;2022-10-17T07:53:47;15.80;;;7.80;;
9248;SDS011;4660;41.768;26.198;2022-10-17T07:56:12;10.53;;;6.87;;
9248;SDS011;4660;41.768;26.198;2022-10-17T07:58:38;10.10;;;6.57;;
9248;SDS011;4660;41.768;26.198;2022-10-17T08:01:05;13.10;;;7.07;;
9248;SDS011;4660;41.768;26.198;2022-10-17T08:03:35;10.70;;;6.40;;
9248;SDS011;4660;41.768;26.198;2022-10-17T08:06:02;8.87;;;6.47;;
9248;SDS011;4660;41.768;26.198;2022-10-17T08:08:28;8.57;;;6.20;;
9248;SDS011;4660;41.768;26.198;2022-10-17T08:11:00;9.73;;;6.23;;
9248;SDS011;4660;41.768;26.198;2022-10-17T08:13:37;8.60;;;6.07;;
9248;SDS011;4660;41.768;26.198;2022-10-17T08:16:05;9.37;;;5.43;;
9248;SDS011;4660;41.768;26.198;2022-10-17T08:18:34;7.50;;;5.93;;
9248;SDS011;4660;41.768;26.198;2022-10-17T08:21:00;10.90;;;6.37;;
9248;SDS011;4660;41.768;26.198;2022-10-17T08:23:32;6.63;;;5.43;;
9248;SDS011;4660;41.768;26.198;2022-10-17T08:25:58;5.77;;;4.87;;
9248;SDS011;4660;41.768;26.198;2022-10-17T08:28:25;8.00;;;5.07;;
9248;SDS011;4660;41.768;26.198;2022-10-17T08:30:52;8.50;;;4.67;;
9248;SDS011;4660;41.768;26.198;2022-10-17T08:33:18;8.20;;;5.67;;
9248;SDS011;4660;41.768;26.198;2022-10-17T08:35:43;6.60;;;4.60;;
9248;SDS011;4660;41.768;26.198;2022-10-17T08:38:12;9.07;;;4.67;;
9248;SDS011;4660;41.768;26.198;2022-10-17T08:40:37;8.17;;;5.33;;
9248;SDS011;4660;41.768;26.198;2022-10-17T08:48:28;10.57;;;4.63;;
9248;SDS011;4660;41.768;26.198;2022-10-17T08:51:04;7.43;;;4.47;;
9248;SDS011;4660;41.768;26.198;2022-10-17T08:54:12;5.33;;;4.37;;
9248;SDS011;4660;41.768;26.198;2022-10-17T08:56:44;7.43;;;5.00;;
9248;SDS011;4660;41.768;26.198;2022-10-17T08:59:17;8.03;;;4.63;;
9248;SDS011;4660;41.768;26.198;2022-10-17T09:02:02;12.63;;;4.80;;
9248;SDS011;4660;41.768;26.198;2022-10-17T09:10:59;8.10;;;4.10;;
9248;SDS011;4660;41.768;26.198;2022-10-17T09:16:36;9.43;;;4.43;;
9248;SDS011;4660;41.768;26.198;2022-10-17T09:19:17;6.17;;;4.63;;
9248;SDS011;4660;41.768;26.198;2022-10-17T09:24:59;7.00;;;3.60;;
9248;SDS011;4660;41.768;26.198;2022-10-17T09:27:47;5.50;;;3.43;;
9248;SDS011;4660;41.768;26.198;2022-10-17T09:30:35;4.73;;;3.30;;
9248;SDS011;4660;41.768;26.198;2022-10-17T09:33:19;6.63;;;3.50;;
9248;SDS011;4660;41.768;26.198;2022-10-17T09:35:53;8.23;;;3.63;;
9248;SDS011;4660;41.768;26.198;2022-10-17T09:38:23;4.00;;;2.97;;
9248;SDS011;4660;41.768;26.198;2022-10-17T09:40:56;3.90;;;3.17;;
9248;SDS011;4660;41.768;26.198;2022-10-17T09:43:25;5.63;;;3.57;;
9248;SDS011;4660;41.768;26.198;2022-10-17T09:46:07;5.67;;;3.60;;
9248;SDS011;4660;41.768;26.198;2022-10-17T09:48:57;7.13;;;3.73;;
9248;SDS011;4660;41.768;26.198;2022-10-17T09:51:45;5.57;;;3.47;;
9248;SDS011;4660;41.768;26.198;2022-10-17T09:54:19;6.43;;;3.43;;
9248;SDS011;4660;41.768;26.198;2022-10-17T09:56:57;4.95;;;3.33;;
9248;SDS011;4660;41.768;26.198;2022-10-17T09:59:41;7.63;;;3.33;;
9248;SDS011;4660;41.768;26.198;2022-10-17T10:04:52;9.93;;;3.63;;
9248;SDS011;4660;41.768;26.198;2022-10-17T10:07:24;4.50;;;3.20;;
9248;SDS011;4660;41.768;26.198;2022-10-17T10:09:52;4.88;;;3.20;;
9248;SDS011;4660;41.768;26.198;2022-10-17T10:14:46;5.28;;;3.00;;
9248;SDS011;4660;41.768;26.198;2022-10-17T10:20:03;7.38;;;3.40;;
9248;SDS011;4660;41.768;26.198;2022-10-17T10:25:34;9.25;;;3.35;;
9248;SDS011;4660;41.768;26.198;2022-10-17T10:28:00;5.00;;;2.78;;
9248;SDS011;4660;41.768;26.198;2022-10-17T10:30:27;8.70;;;3.47;;
9248;SDS011;4660;41.768;26.198;2022-10-17T10:32:55;5.13;;;3.33;;
9248;SDS011;4660;41.768;26.198;2022-10-17T10:35:31;5.05;;;3.20;;
9248;SDS011;4660;41.768;26.198;2022-10-17T10:38:00;5.95;;;3.28;;
9248;SDS011;4660;41.768;26.198;2022-10-17T10:40:29;7.05;;;3.30;;
9248;SDS011;4660;41.768;26.198;2022-10-17T10:42:56;6.75;;;3.60;;
9248;SDS011;4660;41.768;26.198;2022-10-17T10:45:28;9.13;;;3.55;;
9248;SDS011;4660;41.768;26.198;2022-10-17T10:48:20;6.45;;;2.83;;
9248;SDS011;4660;41.768;26.198;2022-10-17T10:50:48;7.65;;;2.85;;
9248;SDS011;4660;41.768;26.198;2022-10-17T10:56:20;6.00;;;2.70;;
9248;SDS011;4660;41.768;26.198;2022-10-17T11:01:50;3.88;;;2.63;;
9248;SDS011;4660;41.768;26.198;2022-10-17T11:04:30;3.42;;;2.30;;
9248;SDS011;4660;41.768;26.198;2022-10-17T11:12:19;5.57;;;2.63;;
9248;SDS011;4660;41.768;26.198;2022-10-17T11:15:13;4.68;;;2.35;;
9248;SDS011;4660;41.768;26.198;2022-10-17T11:18:09;7.32;;;3.05;;
9248;SDS011;4660;41.768;26.198;2022-10-17T11:26:18;3.47;;;2.35;;
9248;SDS011;4660;41.768;26.198;2022-10-17T11:28:51;4.30;;;2.10;;
9248;SDS011;4660;41.768;26.198;2022-10-17T11:31:20;4.47;;;2.58;;
9248;SDS011;4660;41.768;26.198;2022-10-17T11:34:00;7.63;;;2.50;;
9248;SDS011;4660;41.768;26.198;2022-10-17T11:36:31;6.78;;;3.10;;
9248;SDS011;4660;41.768;26.198;2022-10-17T11:39:02;5.82;;;3.22;;
9248;SDS011;4660;41.768;26.198;2022-10-17T11:41:37;5.93;;;2.95;;
9248;SDS011;4660;41.768;26.198;2022-10-17T11:44:17;6.80;;;2.20;;
9248;SDS011;4660;41.768;26.198;2022-10-17T11:46:57;5.05;;;2.75;;
9248;SDS011;4660;41.768;26.198;2022-10-17T11:49:31;3.50;;;2.33;;
9248;SDS011;4660;41.768;26.198;2022-10-17T11:54:55;3.75;;;2.20;;
9248;SDS011;4660;41.768;26.198;2022-10-17T12:10:57;5.85;;;2.80;;
9248;SDS011;4660;41.768;26.198;2022-10-17T12:15:57;5.88;;;2.92;;
9248;SDS011;4660;41.768;26.198;2022-10-17T12:18:43;3.92;;;2.58;;
9248;SDS011;4660;41.768;26.198;2022-10-17T12:21:09;4.72;;;2.97;;
9248;SDS011;4660;41.768;26.198;2022-10-17T12:23:38;6.95;;;2.97;;
9248;SDS011;4660;41.768;26.198;2022-10-17T12:26:08;5.03;;;2.42;;
9248;SDS011;4660;41.768;26.198;2022-10-17T12:28:47;5.18;;;2.88;;
9248;SDS011;4660;41.768;26.198;2022-10-17T12:46:41;7.53;;;2.80;;
9248;SDS011;4660;41.768;26.198;2022-10-17T12:49:36;5.78;;;2.72;;
9248;SDS011;4660;41.768;26.198;2022-10-17T12:54:29;4.65;;;2.10;;
9248;SDS011;4660;41.768;26.198;2022-10-17T12:56:56;3.33;;;2.28;;
9248;SDS011;4660;41.768;26.198;2022-10-17T12:59:27;6.35;;;2.80;;
9248;SDS011;4660;41.768;26.198;2022-10-17T13:01:55;3.10;;;2.25;;
9248;SDS011;4660;41.768;26.198;2022-10-17T13:04:24;3.47;;;2.80;;
9248;SDS011;4660;41.768;26.198;2022-10-17T13:06:53;5.30;;;2.45;;
9248;SDS011;4660;41.768;26.198;2022-10-17T13:11:57;5.82;;;2.42;;
9248;SDS011;4660;41.768;26.198;2022-10-17T13:14:29;3.13;;;2.20;;
9248;SDS011;4660;41.768;26.198;2022-10-17T13:17:01;5.05;;;1.92;;
9248;SDS011;4660;41.768;26.198;2022-10-17T13:19:31;3.65;;;2.10;;
9248;SDS011;4660;41.768;26.198;2022-10-17T13:22:16;4.75;;;2.20;;
9248;SDS011;4660;41.768;26.198;2022-10-17T13:24:51;3.95;;;2.17;;
9248;SDS011;4660;41.768;26.198;2022-10-17T13:27:32;2.47;;;2.17;;
9248;SDS011;4660;41.768;26.198;2022-10-17T13:30:00;2.47;;;1.90;;
9248;SDS011;4660;41.768;26.198;2022-10-17T13:32:34;3.60;;;2.30;;
9248;SDS011;4660;41.768;26.198;2022-10-17T13:35:06;2.65;;;1.92;;
9248;SDS011;4660;41.768;26.198;2022-10-17T13:37:41;5.28;;;2.00;;
9248;SDS011;4660;41.768;26.198;2022-10-17T13:42:42;3.83;;;2.45;;
9248;SDS011;4660;41.768;26.198;2022-10-17T13:45:12;8.90;;;2.47;;
9248;SDS011;4660;41.768;26.198;2022-10-17T13:47:47;7.32;;;2.75;;
9248;SDS011;4660;41.768;26.198;2022-10-17T13:50:33;5.57;;;2.05;;
9248;SDS011;4660;41.768;26.198;2022-10-17T13:53:14;5.57;;;2.10;;
9248;SDS011;4660;41.768;26.198;2022-10-17T13:56:02;4.95;;;2.17;;
9248;SDS011;4660;41.768;26.198;2022-10-17T13:58:29;2.03;;;1.80;;
9248;SDS011;4660;41.768;26.198;2022-10-17T14:01:03;3.28;;;2.35;;
9248;SDS011;4660;41.768;26.198;2022-10-17T14:03:31;2.40;;;1.90;;
9248;SDS011;4660;41.768;26.198;2022-10-17T14:11:37;5.20;;;2.50;;
9248;SDS011;4660;41.768;26.198;2022-10-17T14:14:21;4.25;;;2.38;;
9248;SDS011;4660;41.768;26.198;2022-10-17T14:16:48;3.58;;;2.20;;
9248;SDS011;4660;41.768;26.198;2022-10-17T14:19:24;4.85;;;2.25;;
9248;SDS011;4660;41.768;26.198;2022-10-17T14:22:15;3.13;;;2.33;;
9248;SDS011;4660;41.768;26.198;2022-10-17T14:24:44;4.13;;;2.03;;
9248;SDS011;4660;41.768;26.198;2022-10-17T14:32:49;2.50;;;2.28;;
9248;SDS011;4660;41.768;26.198;2022-10-17T14:35:19;3.65;;;2.08;;
9248;SDS011;4660;41.768;26.198;2022-10-17T14:37:46;3.78;;;2.30;;
9248;SDS011;4660;41.768;26.198;2022-10-17T14:40:18;5.22;;;2.40;;
9248;SDS011;4660;41.768;26.198;2022-10-17T14:42:45;7.50;;;2.30;;
9248;SDS011;4660;41.768;26.198;2022-10-17T14:47:55;2.88;;;2.60;;
9248;SDS011;4660;41.768;26.198;2022-10-17T14:50:29;6.57;;;2.90;;
9248;SDS011;4660;41.768;26.198;2022-10-17T14:53:16;5.03;;;2.63;;
9248;SDS011;4660;41.768;26.198;2022-10-17T14:55:54;7.28;;;2.55;;
9248;SDS011;4660;41.768;26.198;2022-10-17T14:58:26;5.82;;;2.90;;
9248;SDS011;4660;41.768;26.198;2022-10-17T15:00:54;4.20;;;2.45;;
9248;SDS011;4660;41.768;26.198;2022-10-17T15:03:21;3.28;;;2.50;;
9248;SDS011;4660;41.768;26.198;2022-10-17T15:05:48;5.18;;;2.70;;
9248;SDS011;4660;41.768;26.198;2022-10-17T15:08:16;4.55;;;2.58;;
9248;SDS011;4660;41.768;26.198;2022-10-17T15:10:44;3.42;;;2.28;;
9248;SDS011;4660;41.768;26.198;2022-10-17T15:13:10;2.67;;;2.45;;
9248;SDS011;4660;41.768;26.198;2022-10-17T15:15:37;6.57;;;3.03;;
9248;SDS011;4660;41.768;26.198;2022-10-17T15:18:04;3.35;;;2.33;;
9248;SDS011;4660;41.768;26.198;2022-10-17T15:20:31;5.75;;;3.03;;
9248;SDS011;4660;41.768;26.198;2022-10-17T15:22:58;6.65;;;2.92;;
9248;SDS011;4660;41.768;26.198;2022-10-17T15:25:25;3.97;;;2.53;;
9248;SDS011;4660;41.768;26.198;2022-10-17T15:27:52;3.65;;;2.42;;
9248;SDS011;4660;41.768;26.198;2022-10-17T15:32:48;3.97;;;2.65;;
9248;SDS011;4660;41.768;26.198;2022-10-17T15:35:16;4.97;;;3.00;;
9248;SDS011;4660;41.768;26.198;2022-10-17T15:37:42;3.92;;;2.50;;
9248;SDS011;4660;41.768;26.198;2022-10-17T15:40:18;6.95;;;2.70;;
9248;SDS011;4660;41.768;26.198;2022-10-17T15:42:46;6.15;;;2.10;;
9248;SDS011;4660;41.768;26.198;2022-10-17T15:45:12;5.10;;;2.60;;
9248;SDS011;4660;41.768;26.198;2022-10-17T15:47:40;6.47;;;2.85;;
9248;SDS011;4660;41.768;26.198;2022-10-17T15:50:12;5.05;;;2.70;;
9248;SDS011;4660;41.768;26.198;2022-10-17T15:52:39;5.35;;;2.78;;
9248;SDS011;4660;41.768;26.198;2022-10-17T15:55:06;6.55;;;2.70;;
9248;SDS011;4660;41.768;26.198;2022-10-17T15:57:33;3.55;;;2.25;;
9248;SDS011;4660;41.768;26.198;2022-10-17T16:00:03;3.40;;;2.45;;
9248;SDS011;4660;41.768;26.198;2022-10-17T16:02:30;7.57;;;3.00;;
9248;SDS011;4660;41.768;26.198;2022-10-17T16:04:57;6.15;;;2.50;;
9248;SDS011;4660;41.768;26.198;2022-10-17T16:07:23;9.38;;;3.05;;
9248;SDS011;4660;41.768;26.198;2022-10-17T16:09:49;10.05;;;3.42;;
9248;SDS011;4660;41.768;26.198;2022-10-17T16:12:26;6.82;;;3.50;;
9248;SDS011;4660;41.768;26.198;2022-10-17T16:15:06;5.80;;;3.33;;
9248;SDS011;4660;41.768;26.198;2022-10-17T16:18:00;8.00;;;3.70;;
9248;SDS011;4660;41.768;26.198;2022-10-17T16:20:26;7.88;;;4.57;;
9248;SDS011;4660;41.768;26.198;2022-10-17T16:22:51;10.70;;;4.90;;
9248;SDS011;4660;41.768;26.198;2022-10-17T16:25:24;7.93;;;4.13;;
9248;SDS011;4660;41.768;26.198;2022-10-17T16:27:54;6.55;;;4.03;;
9248;SDS011;4660;41.768;26.198;2022-10-17T16:30:22;49.93;;;6.43;;
9248;SDS011;4660;41.768;26.198;2022-10-17T16:32:49;6.18;;;3.17;;
9248;SDS011;4660;41.768;26.198;2022-10-17T16:35:33;10.25;;;3.65;;
9248;SDS011;4660;41.768;26.198;2022-10-17T16:38:00;6.80;;;4.25;;
9248;SDS011;4660;41.768;26.198;2022-10-17T16:40:26;7.93;;;3.78;;
9248;SDS011;4660;41.768;26.198;2022-10-17T16:42:52;9.30;;;3.60;;
9248;SDS011;4660;41.768;26.198;2022-10-17T16:45:19;5.23;;;3.40;;
9248;SDS011;4660;41.768;26.198;2022-10-17T16:47:46;7.47;;;3.37;;
9248;SDS011;4660;41.768;26.198;2022-10-17T16:50:12;6.80;;;3.92;;
9248;SDS011;4660;41.768;26.198;2022-10-17T16:52:38;5.00;;;3.13;;
9248;SDS011;4660;41.768;26.198;2022-10-17T16:55:04;5.90;;;2.88;;
9248;SDS011;4660;41.768;26.198;2022-10-17T16:57:31;5.53;;;3.33;;
9248;SDS011;4660;41.768;26.198;2022-10-17T16:59:57;4.60;;;3.00;;
9248;SDS011;4660;41.768;26.198;2022-10-17T17:02:23;6.07;;;3.20;;
9248;SDS011;4660;41.768;26.198;2022-10-17T17:04:49;9.87;;;3.70;;
9248;SDS011;4660;41.768;26.198;2022-10-17T17:07:14;6.37;;;3.23;;
9248;SDS011;4660;41.768;26.198;2022-10-17T17:09:43;4.03;;;3.10;;
9248;SDS011;4660;41.768;26.198;2022-10-17T17:12:08;8.00;;;3.63;;
9248;SDS011;4660;41.768;26.198;2022-10-17T17:14:34;5.80;;;3.30;;
9248;SDS011;4660;41.768;26.198;2022-10-17T17:17:00;5.30;;;3.37;;
9248;SDS011;4660;41.768;26.198;2022-10-17T17:19:25;8.13;;;3.37;;
9248;SDS011;4660;41.768;26.198;2022-10-17T17:21:51;3.30;;;2.90;;
9248;SDS011;4660;41.768;26.198;2022-10-17T17:24:17;5.77;;;3.23;;
9248;SDS011;4660;41.768;26.198;2022-10-17T17:26:52;4.53;;;2.53;;
9248;SDS011;4660;41.768;26.198;2022-10-17T17:29:19;6.22;;;2.55;;
9248;SDS011;4660;41.768;26.198;2022-10-17T17:31:45;5.22;;;2.70;;
9248;SDS011;4660;41.768;26.198;2022-10-17T17:34:11;4.07;;;2.50;;
9248;SDS011;4660;41.768;26.198;2022-10-17T17:36:37;4.03;;;2.72;;
9248;SDS011;4660;41.768;26.198;2022-10-17T17:39:07;5.57;;;3.00;;
9248;SDS011;4660;41.768;26.198;2022-10-17T17:41:34;3.97;;;2.83;;